Time;durP1;ratioP1;P1;durP2;ratioP2;P2;SDS_P1;SDS_P2;PMS_P1;PMS_P2;Temp;Humidity;BMP_temperature;BMP_pressure;BME280_temperature;BME280_humidity;BME280_pressure;Samples;Min_cycle;Max_cycle;Signal;HPM_P1;HPM_P2
2022/06/23 06:08:25;;;;;;;;;5.67;5.67;;;;;20.97;65.44;100714.16;6297777;22;45378;-91
2022/06/23 06:10:52;;;;;;;;;5.33;4.00;;;;;20.98;65.35;100707.00;6283055;22;44613;-90
2022/06/23 06:16:45;;;;;;;;;5.00;5.00;;;;;21.04;64.79;100718.28;6214952;22;45281;-87
2022/06/23 06:19:23;;;;;;;;;6.00;5.00;;;;;21.09;64.49;100708.25;6265694;22;45424;-87
2022/06/23 06:22:00;;;;;;;;;6.33;5.67;;;;;21.16;64.11;100714.16;6282708;22;45369;-90
2022/06/23 06:24:39;;;;;;;;;5.75;5.25;;;;;21.18;63.71;100709.59;6282516;22;45190;-90
2022/06/23 06:28:01;;;;;;;;;;;;;;;;;;;;;
2022/06/23 06:34:05;;;;;;;;;6.00;6.00;;;;;21.17;63.35;100715.00;6214348;22;45448;-89
2022/06/23 06:36:37;;;;;;;;;7.67;5.00;;;;;21.29;63.14;100717.09;6218522;22;45494;-93
2022/06/23 06:42:14;;;;;;;;;9.67;9.33;;;;;21.55;62.58;100726.56;6247166;22;45453;-93
2022/06/23 06:44:47;;;;;;;;;8.00;7.67;;;;;21.55;61.98;100713.19;6284410;22;45370;-92
2022/06/23 06:47:25;;;;;;;;;8.67;8.00;;;;;21.52;62.09;100716.88;6283887;22;45378;-91
2022/06/23 07:04:23;;;;;;;;;6.33;6.33;;;;;21.40;61.40;100732.69;6041339;23;45323;-86
2022/06/23 07:10:06;;;;;;;;;9.33;7.33;;;;;21.39;61.30;100722.94;5978070;23;45489;-81
2022/06/23 07:12:39;;;;;;;;;6.00;6.00;;;;;21.38;60.92;100718.50;6029358;23;45358;-80
2022/06/23 07:15:11;;;;;;;;;6.67;6.67;;;;;21.41;61.47;100731.72;6211323;22;47005;-79
2022/06/23 07:17:46;;;;;;;;;9.00;8.00;;;;;21.43;61.29;100722.69;6250075;22;45188;-80
2022/06/23 07:20:46;;;;;;;;;6.00;5.67;;;;;21.51;61.25;100717.81;6250869;22;45397;-79
2022/06/23 07:23:23;;;;;;;;;6.33;6.33;;;;;21.62;60.93;100716.41;6249976;22;45389;-80
2022/06/23 07:25:58;;;;;;;;;9.00;9.00;;;;;21.70;60.75;100722.25;6278070;22;45411;-80
2022/06/23 07:28:38;;;;;;;;;6.33;6.33;;;;;21.79;60.92;100716.44;6250580;22;45288;-81
2022/06/23 07:31:13;;;;;;;;;6.33;4.33;;;;;21.92;60.73;100724.69;6250154;22;45163;-81
2022/06/23 07:34:16;;;;;;;;;;;;;;;;;;;;;
2022/06/23 07:37:09;;;;;;;;;;;;;;;;;;;;;
2022/06/23 07:39:38;;;;;;;;;6.00;6.00;;;;;22.35;59.71;100731.44;6276730;22;71612;-85
2022/06/23 07:42:06;;;;;;;;;7.00;5.33;;;;;22.48;59.29;100736.13;6250221;22;45237;-84
2022/06/23 07:44:52;;;;;;;;;;;;;;;;;;;;;
2022/06/23 07:47:37;;;;;;;;;;;;;;;;;;;;;
2022/06/23 07:50:03;;;;;;;;;6.00;5.00;;;;;22.70;58.33;100742.09;6277109;22;71942;-82
2022/06/23 07:52:28;;;;;;;;;6.00;6.00;;;;;22.77;58.48;100748.81;6276847;22;45366;-86
2022/06/23 07:54:54;;;;;;;;;5.67;5.67;;;;;22.82;58.19;100740.53;6249994;22;45451;-83
2022/06/23 07:57:20;;;;;;;;;7.67;7.00;;;;;22.90;58.13;100735.59;6250099;22;47095;-85
2022/06/23 07:59:58;;;;;;;;;5.33;4.00;;;;;22.97;57.88;100746.91;6279097;22;45157;-86
2022/06/23 08:02:27;;;;;;;;;8.00;7.00;;;;;23.06;57.69;100744.56;6250781;22;45205;-88
2022/06/23 08:05:20;;;;;;;;;5.00;5.00;;;;;23.16;57.28;100744.06;6277663;22;45362;-83
2022/06/23 08:07:46;;;;;;;;;7.67;7.67;;;;;23.19;57.19;100742.06;6285932;22;46197;-83
2022/06/23 08:10:30;;;;;;;;;6.33;6.33;;;;;23.23;56.75;100740.97;6308844;22;45373;-84
2022/06/23 08:13:12;;;;;;;;;6.67;5.67;;;;;23.22;56.69;100733.84;6280425;22;45284;-84
2022/06/23 08:18:34;;;;;;;;;7.33;6.00;;;;;23.21;56.01;100739.31;6308153;22;45216;-82
2022/06/23 08:21:24;;;;;;;;;6.00;6.00;;;;;23.12;55.77;100743.34;6281436;22;45547;-85
2022/06/23 08:24:02;;;;;;;;;7.33;7.33;;;;;23.11;56.20;100747.00;6281000;22;45336;-85
2022/06/23 08:26:28;;;;;;;;;8.00;7.33;;;;;23.11;55.90;100736.28;6280396;22;45441;-84
2022/06/23 08:28:58;;;;;;;;;8.67;6.67;;;;;23.17;56.28;100737.75;6308238;22;45365;-83
2022/06/23 08:31:26;;;;;;;;;7.33;7.33;;;;;23.21;55.52;100731.25;6308670;22;45402;-82
2022/06/23 08:33:51;;;;;;;;;6.00;5.00;;;;;23.24;55.63;100740.00;6280145;22;45316;-79
2022/06/23 08:36:22;;;;;;;;;4.67;4.67;;;;;23.30;55.40;100739.63;6308489;22;45212;-81
2022/06/23 08:39:01;;;;;;;;;7.00;6.67;;;;;23.33;55.30;100735.91;6280264;22;47393;-82
2022/06/23 08:41:43;;;;;;;;;6.00;5.33;;;;;23.38;54.97;100733.81;6274819;22;46224;-79
2022/06/23 08:44:18;;;;;;;;;8.00;7.67;;;;;23.46;54.88;100741.44;6307161;22;45339;-78
2022/06/23 08:46:55;;;;;;;;;4.00;4.00;;;;;23.50;54.24;100745.72;6306586;22;45386;-78
2022/06/23 08:49:40;;;;;;;;;8.00;8.00;;;;;23.52;54.57;100738.41;6279689;22;46929;-79
2022/06/23 08:52:22;;;;;;;;;4.33;4.33;;;;;23.55;54.50;100744.50;6279641;22;45289;-79
2022/06/23 08:55:15;;;;;;;;;6.33;5.33;;;;;23.60;53.94;100746.03;6279866;22;45396;-79
2022/06/23 08:58:04;;;;;;;;;6.33;5.33;;;;;23.63;54.49;100745.84;6279775;22;45430;-78
2022/06/23 09:01:07;;;;;;;;;5.00;5.00;;;;;23.69;53.26;100749.06;6284394;22;45513;-79
2022/06/23 09:03:42;;;;;;;;;8.00;6.33;;;;;23.73;53.41;100747.94;6217258;22;45427;-86
2022/06/23 09:06:22;;;;;;;;;6.00;5.00;;;;;23.72;53.49;100742.66;6283661;22;45299;-85
2022/06/23 09:09:13;;;;;;;;;6.67;6.33;;;;;23.77;53.39;100745.97;6308225;22;45179;-86
2022/06/23 09:12:07;;;;;;;;;5.33;4.33;;;;;23.86;53.52;100739.16;6267152;22;48067;-84
2022/06/23 09:14:44;;;;;;;;;7.00;7.00;;;;;23.96;53.30;100737.66;6309944;22;45346;-83
2022/06/23 09:17:16;;;;;;;;;4.00;4.00;;;;;24.09;53.10;100746.72;6279630;22;45585;-84
2022/06/23 09:20:06;;;;;;;;;7.33;6.00;;;;;24.21;52.93;100735.19;6281722;22;45356;-83
2022/06/23 09:23:01;;;;;;;;;5.00;5.00;;;;;24.36;51.88;100740.63;6310072;22;45315;-88
2022/06/23 09:26:06;;;;;;;;;6.00;5.33;;;;;24.44;52.11;100738.38;6308055;22;45210;-85
2022/06/23 09:28:54;;;;;;;;;8.00;7.00;;;;;24.47;52.08;100742.69;6309439;22;45208;-83
2022/06/23 09:31:41;;;;;;;;;4.67;4.67;;;;;24.50;51.37;100737.97;6281582;22;45553;-83
2022/06/23 09:34:25;;;;;;;;;4.67;3.67;;;;;24.55;51.30;100743.09;6310240;22;45404;-86
2022/06/23 09:36:50;;;;;;;;;5.00;5.00;;;;;24.60;51.31;100731.06;6282057;22;45426;-85
2022/06/23 09:39:30;;;;;;;;;7.33;6.00;;;;;24.62;50.44;100736.38;6283606;22;45422;-84
2022/06/23 09:42:23;;;;;;;;;5.67;5.67;;;;;24.62;50.58;100723.75;6280938;22;45164;-83
2022/06/23 09:45:09;;;;;;;;;6.00;6.00;;;;;24.67;49.86;100726.13;6281646;22;47193;-85
2022/06/23 09:48:12;;;;;;;;;5.00;5.00;;;;;24.69;49.77;100721.53;6282407;22;45449;-84
2022/06/23 09:50:49;;;;;;;;;6.67;6.67;;;;;24.72;49.92;100726.72;6312566;22;45284;-86
2022/06/23 09:53:35;;;;;;;;;5.67;5.67;;;;;24.76;49.64;100722.88;6310321;22;45335;-86
2022/06/23 09:56:06;;;;;;;;;5.67;5.67;;;;;24.81;50.04;100720.75;6309790;22;45265;-86
2022/06/23 09:58:54;;;;;;;;;5.00;5.00;;;;;24.83;49.46;100713.47;6312217;22;45355;-87
2022/06/23 10:01:28;;;;;;;;;8.00;5.67;;;;;24.87;49.70;100720.38;6283665;22;45286;-87
2022/06/23 10:04:02;;;;;;;;;3.67;3.67;;;;;24.94;49.22;100730.75;6283406;22;45338;-87
2022/06/23 10:06:57;;;;;;;;;2.67;1.67;;;;;24.99;49.02;100718.72;6282332;22;47281;-87
2022/06/23 10:09:35;;;;;;;;;5.67;4.67;;;;;25.07;48.56;100720.91;6259207;22;45164;-88
2022/06/23 10:12:36;;;;;;;;;5.33;5.33;;;;;25.15;48.63;100728.50;6283202;22;45193;-86
2022/06/23 10:15:12;;;;;;;;;3.00;3.00;;;;;25.23;48.86;100724.38;6262018;22;45439;-87
2022/06/23 10:17:45;;;;;;;;;7.00;5.00;;;;;25.37;48.65;100722.59;6312015;22;45442;-87
2022/06/23 10:20:23;;;;;;;;;5.33;4.33;;;;;25.48;48.68;100729.03;6282192;22;45330;-88
2022/06/23 10:23:00;;;;;;;;;6.00;4.00;;;;;25.59;47.99;100725.59;6283135;22;45369;-87
2022/06/23 10:25:48;;;;;;;;;5.00;5.00;;;;;25.64;47.48;100726.16;6282600;22;45269;-87
2022/06/23 10:28:45;;;;;;;;;5.00;5.00;;;;;25.68;47.57;100716.88;6281576;22;48082;-87
2022/06/23 10:31:19;;;;;;;;;5.00;5.00;;;;;25.74;47.96;100727.28;6279934;22;45314;-87
2022/06/23 10:34:15;;;;;;;;;5.67;5.67;;;;;25.85;47.34;100728.38;6283328;22;45254;-86
2022/06/23 10:36:59;;;;;;;;;6.00;5.00;;;;;25.98;47.59;100729.28;6284175;22;45366;-86
2022/06/23 10:39:51;;;;;;;;;;;;;;;;;;;;;
2022/06/23 10:42:26;;;;;;;;;5.33;5.33;;;;;26.28;47.10;100714.66;6308102;22;71651;-86
2022/06/23 10:49:10;;;;;;;;;3.67;3.67;;;;;26.64;45.98;100702.25;6309228;22;45516;-84
2022/06/23 10:51:51;;;;;;;;;5.33;5.33;;;;;26.73;45.57;100699.75;6182322;23;46808;-86
2022/06/23 10:55:11;;;;;;;;;6.00;6.00;;;;;26.73;45.16;100698.88;6183108;23;45400;-81
2022/06/23 10:57:36;;;;;;;;;3.00;3.00;;;;;26.70;45.36;100705.34;6242625;22;45449;-83
2022/06/23 11:00:28;;;;;;;;;5.00;3.67;;;;;26.62;45.36;100699.66;6217876;22;45571;-82
2022/06/23 11:03:08;;;;;;;;;5.00;5.00;;;;;26.56;45.66;100702.78;6258559;22;47206;-86
2022/06/23 11:05:50;;;;;;;;;6.00;6.00;;;;;26.51;45.45;100695.00;6281369;22;45375;-84
2022/06/23 11:08:15;;;;;;;;;6.00;6.00;;;;;26.53;45.65;100695.78;6282508;22;45437;-91
2022/06/23 11:11:08;;;;;;;;;7.33;7.33;;;;;26.63;46.05;100700.53;6281624;22;45188;-83
2022/06/23 11:13:59;;;;;;;;;6.00;5.00;;;;;26.77;45.03;100693.13;6308851;22;45322;-83
2022/06/23 11:16:46;;;;;;;;;8.00;7.00;;;;;26.89;45.27;100691.41;6308981;22;45331;-82
2022/06/23 11:19:56;;;;;;;;;5.33;5.33;;;;;26.94;44.94;100688.34;6309209;22;45104;-84
2022/06/23 11:22:36;;;;;;;;;6.67;6.67;;;;;27.05;44.27;100691.13;6176421;22;45865;-84
2022/06/23 11:25:01;;;;;;;;;4.33;4.33;;;;;27.17;44.50;100690.25;6217242;22;45320;-82
2022/06/23 11:28:04;;;;;;;;;5.33;4.00;;;;;27.26;43.94;100683.28;6280187;22;45623;-83
2022/06/23 11:31:02;;;;;;;;;4.33;4.33;;;;;27.36;43.79;100680.78;6280657;22;45392;-82
2022/06/23 11:33:37;;;;;;;;;7.00;6.67;;;;;27.49;43.26;100686.97;6280130;22;45198;-82
2022/06/23 11:36:27;;;;;;;;;4.33;4.00;;;;;27.59;43.39;100687.16;6279390;22;47971;-83
2022/06/23 11:39:34;;;;;;;;;5.00;5.00;;;;;27.67;42.98;100677.47;6281237;22;45641;-82
2022/06/23 11:42:00;;;;;;;;;4.00;4.00;;;;;27.82;42.14;100680.84;6309143;22;45112;-83
2022/06/23 11:44:28;;;;;;;;;5.33;5.33;;;;;27.93;42.52;100677.31;6280475;22;45177;-85
2022/06/23 11:47:37;;;;;;;;;5.33;5.00;;;;;28.09;41.89;100675.16;6279989;22;47036;-86
2022/06/23 11:50:30;;;;;;;;;5.00;4.00;;;;;28.26;41.43;100671.13;6309564;22;45274;-84
2022/06/23 11:53:39;;;;;;;;;5.00;5.00;;;;;28.40;40.76;100664.59;6308780;22;45334;-85
2022/06/23 11:56:30;;;;;;;;;4.33;4.33;;;;;28.47;40.32;100662.28;6231667;22;45827;-90
2022/06/23 11:59:24;;;;;;;;;6.00;6.00;;;;;28.39;40.36;100676.41;6281821;22;48097;-90
2022/06/23 12:01:50;;;;;;;;;6.00;5.00;;;;;28.36;39.40;100664.00;6282968;22;45347;-86
2022/06/23 12:04:29;;;;;;;;;5.00;5.00;;;;;28.40;39.86;100663.75;6281498;22;45524;-90
2022/06/23 12:07:33;;;;;;;;;4.67;4.67;;;;;28.52;40.23;100642.00;6282426;22;45285;-92
2022/06/23 12:10:21;;;;;;;;;4.00;4.00;;;;;28.68;39.66;100647.03;6279628;22;47049;-92
2022/06/23 12:12:49;;;;;;;;;6.00;6.00;;;;;28.80;39.59;100646.00;6282835;22;45915;-91
2022/06/23 12:15:25;;;;;;;;;5.00;5.00;;;;;28.96;38.07;100650.16;6308140;22;45311;-92
2022/06/23 12:18:09;;;;;;;;;5.00;4.00;;;;;29.02;37.70;100646.94;6265034;22;45329;-90
2022/06/23 12:21:13;;;;;;;;;4.67;4.67;;;;;29.13;37.35;100644.22;6315835;22;45460;-92
2022/06/23 12:24:34;;;;;;;;;;;;;;;;;;;;;
2022/06/23 12:30:56;;;;;;;;;;;;;;;;;;;;;
2022/06/23 12:34:18;;;;;;;;;;;;;;;;;;;;;
2022/06/23 14:05:24;;;;;;;;;4.00;4.00;;;;;31.02;31.70;100553.50;6185281;22;45986;31
2022/06/23 14:11:41;;;;;;;;;3.00;3.00;;;;;31.47;32.34;100545.63;6191055;23;45218;-87
2022/06/23 14:14:32;;;;;;;;;3.00;3.00;;;;;31.73;32.20;100550.44;6159287;23;45228;-82
2022/06/23 14:17:19;;;;;;;;;4.33;4.33;;;;;31.83;31.81;100543.94;6171195;23;45778;-83
2022/06/23 14:20:19;;;;;;;;;4.00;4.00;;;;;31.69;31.17;100544.44;6158532;23;45274;-83
2022/06/23 14:23:31;;;;;;;;;3.67;3.67;;;;;31.50;31.26;100541.78;6187176;23;45393;-87
2022/06/23 14:26:10;;;;;;;;;4.67;4.67;;;;;31.41;31.39;100546.22;6187291;23;45230;-85
2022/06/23 14:32:37;;;;;;;;;3.33;3.33;;;;;31.34;30.66;100548.63;6141815;23;45346;-85
2022/06/23 14:35:56;;;;;;;;;4.67;3.67;;;;;31.04;30.83;100551.53;6159729;23;45384;-87
2022/06/23 14:39:13;;;;;;;;;;;;;;;;;;;;;
2022/06/23 14:42:16;;;;;;;;;4.00;4.00;;;;;31.41;31.24;100549.81;6138826;23;74430;-89
2022/06/23 14:48:40;;;;;;;;;;;;;;;;;;;;;
2022/06/23 14:52:23;;;;;;;;;;;;;;;;;;;;;
2022/06/23 14:58:36;;;;;;;;;5.00;5.00;;;;;32.05;30.06;100537.34;6186725;23;45492;-86
2022/06/23 15:01:46;;;;;;;;;4.00;4.00;;;;;32.26;30.34;100541.66;6161078;23;45505;-92
2022/06/23 15:04:23;;;;;;;;;4.00;4.00;;;;;32.33;29.97;100541.94;6158168;23;45216;-85
2022/06/23 15:07:08;;;;;;;;;;;;;;;;;;;;;
2022/06/23 15:10:06;;;;;;;;;4.67;4.67;;;;;32.38;30.16;100518.66;6216692;22;72935;-91
2022/06/23 18:41:56;;;;;;;;;;;;;;;;;;;;;
2022/06/23 18:44:46;;;;;;;;;4.00;3.00;;;;;28.72;32.18;100452.53;6306237;22;75214;-86
2022/06/23 18:47:49;;;;;;;;;1.67;1.67;;;;;28.63;32.13;100447.88;6282793;22;45739;-87
2022/06/23 18:50:21;;;;;;;;;3.33;3.33;;;;;28.51;32.27;100442.50;6307749;22;45544;-78
2022/06/23 18:52:56;;;;;;;;;3.33;2.33;;;;;28.42;31.90;100454.09;6279571;22;45397;-77
2022/06/23 18:55:34;;;;;;;;;3.00;3.00;;;;;28.31;32.28;100449.56;6308331;22;45349;-78
2022/06/23 18:58:04;;;;;;;;;5.00;4.33;;;;;28.25;31.93;100447.34;6280711;22;45487;-78
2022/06/23 19:00:45;;;;;;;;;3.67;3.67;;;;;28.17;32.67;100451.69;6308064;22;45458;-77
2022/06/23 19:03:17;;;;;;;;;6.67;3.33;;;;;28.09;32.48;100452.31;6276391;22;45509;-78
2022/06/23 19:05:51;;;;;;;;;2.67;2.67;;;;;28.02;32.50;100449.25;6276593;22;46916;-78
2022/06/23 19:08:27;;;;;;;;;4.00;3.00;;;;;27.97;32.49;100451.47;6274870;22;45426;-81
2022/06/23 19:10:58;;;;;;;;;3.00;3.00;;;;;27.89;32.91;100456.66;6306166;22;45421;-82
2022/06/23 19:13:24;;;;;;;;;3.00;2.00;;;;;27.82;33.19;100450.00;6277398;22;45761;-81
2022/06/23 19:16:11;;;;;;;;;4.00;3.00;;;;;27.76;33.45;100445.91;6277193;22;47486;-81
2022/06/23 19:18:54;;;;;;;;;5.00;3.67;;;;;27.71;34.10;100438.16;6277659;22;45578;-82
2022/06/23 19:21:35;;;;;;;;;4.00;4.00;;;;;27.67;34.16;100442.13;6277343;22;45359;-82
2022/06/23 19:24:43;;;;;;;;;3.00;3.00;;;;;27.62;34.62;100444.34;6305847;22;45473;-80
2022/06/23 19:27:30;;;;;;;;;2.33;2.33;;;;;27.58;34.56;100448.25;6244665;22;46239;-78
2022/06/23 19:30:15;;;;;;;;;1.67;1.00;;;;;27.53;34.54;100442.34;6305502;22;45613;-80
2022/06/23 19:33:05;;;;;;;;;4.00;4.00;;;;;27.50;34.84;100445.28;6305331;22;45575;-79
2022/06/23 19:35:32;;;;;;;;;2.00;2.00;;;;;27.45;34.82;100442.97;6304816;22;45315;-79
2022/06/23 19:38:29;;;;;;;;;2.67;2.00;;;;;27.43;34.94;100444.09;6303994;22;46554;-80
2022/06/23 19:41:08;;;;;;;;;2.67;2.67;;;;;27.39;35.37;100448.84;6278907;22;45423;-81
2022/06/23 19:43:47;;;;;;;;;5.00;4.00;;;;;27.35;35.32;100446.53;6276242;22;45789;-81
2022/06/23 19:46:16;;;;;;;;;2.33;2.33;;;;;27.31;35.25;100453.16;6276051;22;45441;-82
2022/06/23 19:48:45;;;;;;;;;5.00;4.00;;;;;27.28;35.39;100454.25;6306210;22;45694;-81
2022/06/23 19:51:28;;;;;;;;;3.00;2.00;;;;;27.22;35.52;100454.75;6278243;22;45362;-81
2022/06/23 19:54:20;;;;;;;;;4.00;3.00;;;;;27.16;35.47;100455.16;6308911;22;45470;-81
2022/06/23 19:57:02;;;;;;;;;1.00;1.00;;;;;27.11;35.49;100460.94;6280620;22;45349;-81
2022/06/23 19:59:35;;;;;;;;;2.33;2.33;;;;;27.08;35.91;100471.13;6280669;22;46699;-82
2022/06/23 20:02:33;;;;;;;;;2.67;2.67;;;;;27.01;36.04;100471.59;6278879;22;45471;-80
2022/06/23 20:05:05;;;;;;;;;4.33;4.33;;;;;27.00;35.90;100472.59;6306125;22;45462;-80
2022/06/23 20:08:04;;;;;;;;;3.00;3.00;;;;;26.98;36.17;100481.78;6276408;22;45757;-78
2022/06/23 20:10:34;;;;;;;;;3.33;3.33;;;;;26.96;36.35;100486.44;6256781;22;46948;-79
2022/06/23 20:13:12;;;;;;;;;3.67;3.00;;;;;26.92;36.34;100483.13;6277177;22;45941;-77
2022/06/23 20:15:47;;;;;;;;;1.67;1.67;;;;;26.90;36.27;100495.03;6276852;22;45731;-77
2022/06/23 20:18:39;;;;;;;;;3.00;2.00;;;;;26.84;36.53;100497.22;6305328;22;45375;-78
2022/06/23 20:21:15;;;;;;;;;4.00;3.00;;;;;26.81;36.19;100488.47;6277650;22;47061;-78
2022/06/23 20:23:40;;;;;;;;;3.00;3.00;;;;;26.76;36.77;100486.13;6306370;22;45953;-79
2022/06/23 20:26:24;;;;;;;;;3.00;3.00;;;;;26.72;36.94;100487.31;6305708;22;45778;-79
2022/06/23 20:29:05;;;;;;;;;3.00;3.00;;;;;26.69;37.01;100497.50;6277161;22;45560;-79
2022/06/23 20:31:42;;;;;;;;;3.33;3.33;;;;;26.64;37.17;100494.28;6277147;22;45934;-80
2022/06/23 20:34:26;;;;;;;;;2.33;2.33;;;;;26.58;37.38;100485.66;6276983;22;45887;-80
2022/06/23 20:37:00;;;;;;;;;2.67;2.67;;;;;26.55;37.56;100485.06;6276830;22;45397;-79
2022/06/23 20:39:56;;;;;;;;;3.00;3.00;;;;;26.51;37.44;100486.22;6305683;22;45696;-79
2022/06/23 20:42:33;;;;;;;;;3.33;3.33;;;;;26.48;37.74;100483.75;6277266;22;47118;-78
2022/06/23 20:45:21;;;;;;;;;3.67;3.00;;;;;26.43;37.42;100483.22;6305821;22;45442;-78
2022/06/23 20:48:06;;;;;;;;;3.67;2.67;;;;;26.40;37.63;100487.88;6277030;22;45469;-78
2022/06/23 20:50:37;;;;;;;;;2.33;2.33;;;;;26.36;38.19;100480.13;6275999;22;45446;-79
2022/06/23 20:53:22;;;;;;;;;3.00;3.00;;;;;26.32;38.05;100470.50;6277662;22;47259;-78
2022/06/23 20:55:54;;;;;;;;;3.67;3.00;;;;;26.29;38.10;100476.16;6305052;22;45335;-79
2022/06/23 20:58:54;;;;;;;;;2.67;2.67;;;;;26.24;38.15;100470.22;6276857;22;45411;-77
2022/06/23 21:01:29;;;;;;;;;5.00;4.67;;;;;26.22;38.24;100474.88;6277967;22;45740;-78
2022/06/23 21:04:06;;;;;;;;;3.67;3.67;;;;;26.20;38.41;100476.84;6305814;22;45630;-79
2022/06/23 21:06:40;;;;;;;;;3.33;3.33;;;;;26.18;38.30;100480.50;6306523;22;45510;-78
2022/06/23 21:09:21;;;;;;;;;4.00;4.00;;;;;26.15;38.66;100480.72;6278607;22;45704;-79
2022/06/23 21:12:13;;;;;;;;;5.00;3.33;;;;;26.12;38.66;100474.69;6277223;22;45615;-78
2022/06/23 21:15:20;;;;;;;;;3.33;3.00;;;;;26.11;38.40;100481.06;6307953;22;45648;-78
2022/06/23 21:18:29;;;;;;;;;;;;;;;;;;;;;
2022/06/23 21:28:52;;;;;;;;;2.00;2.00;;;;;26.01;39.14;100478.19;6152155;23;45598;-83
2022/06/23 23:10:39;;;;;;;;;5.00;4.00;;;;;25.14;41.85;100477.06;6306725;22;45575;-84
2022/06/23 23:13:10;;;;;;;;;4.00;3.00;;;;;25.15;42.19;100480.63;6279681;22;45519;-81
2022/06/23 23:15:40;;;;;;;;;4.67;4.67;;;;;25.16;41.77;100483.25;6277469;22;47054;-83
2022/06/23 23:18:34;;;;;;;;;;;;;;;;;;;;;
2022/06/23 23:21:00;;;;;;;;;4.67;4.33;;;;;25.17;42.20;100484.97;6302793;22;67009;-81
2022/06/23 23:24:08;;;;;;;;;4.67;3.33;;;;;25.17;42.02;100484.09;6279354;22;45448;-81
2022/06/23 23:27:14;;;;;;;;;7.67;6.00;;;;;25.17;41.89;100473.31;6246313;22;46441;-81
2022/06/23 23:30:05;;;;;;;;;;;;;;;;;;;;;
2022/06/23 23:32:53;;;;;;;;;;;;;;;;;;;;;
2022/06/23 23:35:47;;;;;;;;;4.00;4.00;;;;;25.22;42.29;100469.34;6308452;22;71994;-82
2022/06/23 23:38:55;;;;;;;;;;;;;;;;;;;;;
2022/06/23 23:41:27;;;;;;;;;5.00;4.00;;;;;25.22;42.25;100476.56;6308091;22;72418;-81
2022/06/23 23:43:57;;;;;;;;;3.00;3.00;;;;;25.20;42.48;100473.09;6282597;22;45300;-82
2022/06/23 23:46:36;;;;;;;;;5.00;4.00;;;;;25.21;41.99;100477.53;6281749;22;45508;-81
2022/06/23 23:49:33;;;;;;;;;3.33;3.33;;;;;25.20;42.27;100483.88;6310591;22;45672;-81
2022/06/23 23:52:05;;;;;;;;;4.67;3.00;;;;;25.15;41.75;100484.19;6281752;22;45530;-81
2022/06/23 23:54:48;;;;;;;;;4.00;4.00;;;;;25.10;41.78;100491.72;6307964;22;45350;-81
2022/06/23 23:57:16;;;;;;;;;2.00;2.00;;;;;25.05;42.29;100491.19;6281248;22;45398;-81
2022/06/23 23:59:53;;;;;;;;;3.00;3.00;;;;;25.01;43.52;100481.56;6306963;22;46844;-81
